createdAt,value
2019-02-23T00:00:31.268Z,6.54
2019-02-23T00:01:31.249Z,6.58
2019-02-23T00:02:31.177Z,6.55
2019-02-23T00:03:31.170Z,6.48
2019-02-23T00:04:31.097Z,6.49
2019-02-23T00:05:31.052Z,6.41
2019-02-23T00:06:31.023Z,6.41
2019-02-23T00:07:30.950Z,6.41
2019-02-23T00:08:30.920Z,6.30
2019-02-23T00:09:30.869Z,6.15
2019-02-23T00:10:30.827Z,6.14
2019-02-23T00:11:30.782Z,6.22
2019-02-23T00:12:30.757Z,6.18
2019-02-23T00:13:30.698Z,6.09
2019-02-23T00:14:30.641Z,6.12
2019-02-23T00:15:30.622Z,6.01
2019-02-23T00:16:30.559Z,6.41
2019-02-23T00:17:30.553Z,6.43
2019-02-23T00:18:30.489Z,6.40
2019-02-23T00:19:30.428Z,6.56
2019-02-23T00:20:30.377Z,6.69
2019-02-23T00:21:30.339Z,6.77
2019-02-23T00:22:30.322Z,6.95
2019-02-23T00:23:30.290Z,7.05
2019-02-23T00:24:30.210Z,6.98
2019-02-23T00:25:30.157Z,7.06
2019-02-23T00:26:30.110Z,6.81
2019-02-23T00:27:30.067Z,6.85
2019-02-23T00:28:30.059Z,6.80
2019-02-23T00:29:29.985Z,6.88
2019-02-23T00:30:29.946Z,6.87
2019-02-23T00:31:29.900Z,6.85
2019-02-23T00:32:29.845Z,6.79
2019-02-23T00:33:29.826Z,6.69
2019-02-23T00:34:29.789Z,6.80
2019-02-23T00:35:29.717Z,6.87
2019-02-23T00:36:29.676Z,6.84
2019-02-23T00:37:29.632Z,6.81
2019-02-23T00:38:29.580Z,6.70
2019-02-23T00:39:29.531Z,6.66
2019-02-23T00:40:29.523Z,6.73
2019-02-23T00:41:29.452Z,6.84
2019-02-23T00:42:29.406Z,7.07
2019-02-23T00:43:29.359Z,7.10
2019-02-23T00:44:29.348Z,6.92
2019-02-23T00:45:29.268Z,6.84
2019-02-23T00:46:29.221Z,7.10
2019-02-23T00:47:29.176Z,7.10
2019-02-23T00:48:29.142Z,7.06
2019-02-23T00:49:36.435Z,7.10
2019-02-23T00:50:29.052Z,7.25
2019-02-23T00:51:29.008Z,7.20
2019-02-23T00:52:28.959Z,7.07
2019-02-23T00:53:28.914Z,7.07
2019-02-23T00:54:28.901Z,7.02
2019-02-23T00:55:28.853Z,6.85
2019-02-23T00:56:28.778Z,6.89
2019-02-23T00:57:28.735Z,6.88
2019-02-23T00:58:28.689Z,6.81
2019-02-23T00:59:28.648Z,6.79
2019-02-23T01:00:28.632Z,6.84
2019-02-23T01:01:28.590Z,7.02
2019-02-23T01:02:28.524Z,6.91
2019-02-23T01:03:28.483Z,6.87
2019-02-23T01:04:28.435Z,6.74
2019-02-23T01:05:28.383Z,6.64
2019-02-23T01:06:28.361Z,6.54
2019-02-23T01:07:28.315Z,6.59
2019-02-23T01:08:28.258Z,6.44
2019-02-23T01:09:28.215Z,6.34
2019-02-23T01:10:28.190Z,6.31
2019-02-23T01:11:28.118Z,6.21
2019-02-23T01:12:28.081Z,6.11
2019-02-23T01:13:28.037Z,6.01
2019-02-23T01:14:27.990Z,6.08
2019-02-23T01:15:27.951Z,6.03
2019-02-23T01:16:27.921Z,5.90
2019-02-23T01:17:27.852Z,5.93
2019-02-23T01:18:27.807Z,5.83
2019-02-23T01:19:27.765Z,5.81
2019-02-23T01:20:27.727Z,5.79
2019-02-23T01:21:27.702Z,5.75
2019-02-23T01:22:27.634Z,5.54
2019-02-23T01:23:27.598Z,5.53
2019-02-23T01:24:27.538Z,5.56
2019-02-23T01:25:27.497Z,5.56
2019-02-23T01:26:27.481Z,5.43
2019-02-23T01:27:27.412Z,5.42
2019-02-23T01:28:27.365Z,5.48
2019-02-23T01:29:27.318Z,5.42
2019-02-23T01:30:27.277Z,5.39
2019-02-23T01:31:27.264Z,5.33
2019-02-23T01:32:27.191Z,5.30
2019-02-23T01:33:27.160Z,5.31
2019-02-23T01:34:27.100Z,5.30
2019-02-23T01:35:27.063Z,5.15
2019-02-23T01:36:27.008Z,5.21
2019-02-23T01:37:26.985Z,5.21
2019-02-23T01:38:26.912Z,5.17
2019-02-23T01:39:26.875Z,5.13
2019-02-23T01:40:26.837Z,5.13
2019-02-23T01:41:26.803Z,5.13
2019-02-23T01:42:26.761Z,4.97
2019-02-23T01:43:26.713Z,5.07
2019-02-23T01:44:26.725Z,5.02
2019-02-23T01:45:26.611Z,5.02
2019-02-23T01:46:26.564Z,5.04
2019-02-23T01:47:26.540Z,5.02
2019-02-23T01:48:26.467Z,5.02
2019-02-23T01:49:26.444Z,4.89
2019-02-23T01:50:26.374Z,4.94
2019-02-23T01:51:26.331Z,4.78
2019-02-23T01:52:26.296Z,4.78
2019-02-23T01:53:26.248Z,4.75
2019-02-23T01:54:26.232Z,4.73
2019-02-23T01:55:26.157Z,4.67
2019-02-23T01:56:26.107Z,4.65
2019-02-23T01:57:26.062Z,4.75
2019-02-23T01:58:26.024Z,4.66
2019-02-23T01:59:25.977Z,4.67
2019-02-23T02:00:25.955Z,4.62
2019-02-23T02:01:25.883Z,4.67
2019-02-23T02:02:25.838Z,4.72
2019-02-23T02:03:25.822Z,4.59
2019-02-23T02:04:25.756Z,4.62
2019-02-23T02:05:25.737Z,4.63
2019-02-23T02:06:25.670Z,4.59
2019-02-23T02:07:25.621Z,4.58
2019-02-23T02:08:25.573Z,4.59
2019-02-23T02:09:25.523Z,4.52
2019-02-23T02:10:25.481Z,4.60
2019-02-23T02:11:25.467Z,4.52
2019-02-23T02:12:25.397Z,4.51
2019-02-23T02:13:25.353Z,4.47
2019-02-23T02:14:25.321Z,4.51
2019-02-23T02:15:25.257Z,4.48
2019-02-23T02:16:25.216Z,4.41
2019-02-23T02:17:25.174Z,4.29
2019-02-23T02:18:25.127Z,4.37
2019-02-23T02:19:25.104Z,4.23
2019-02-23T02:20:25.027Z,4.32
2019-02-23T02:21:24.980Z,4.36
2019-02-23T02:22:24.937Z,4.29
2019-02-23T02:23:24.917Z,4.34
2019-02-23T02:24:24.855Z,4.33
2019-02-23T02:25:24.811Z,4.33
2019-02-23T02:26:24.762Z,4.29
2019-02-23T02:27:24.718Z,4.37
2019-02-23T02:28:24.667Z,4.36
2019-02-23T02:29:24.641Z,4.33
2019-02-23T02:30:24.606Z,4.26
2019-02-23T02:31:24.537Z,4.33
2019-02-23T02:32:24.489Z,4.24
2019-02-23T02:33:24.444Z,4.18
2019-02-23T02:34:24.394Z,4.23
2019-02-23T02:35:24.373Z,4.20
2019-02-23T02:36:24.314Z,4.08
2019-02-23T02:37:24.268Z,4.04
2019-02-23T02:38:24.218Z,4.02
2019-02-23T02:39:24.176Z,4.09
2019-02-23T02:40:24.150Z,4.05
2019-02-23T02:41:24.081Z,4.00
2019-02-23T02:42:24.033Z,3.91
2019-02-23T02:43:23.990Z,3.90
2019-02-23T02:44:23.953Z,4.08
2019-02-23T02:45:23.907Z,3.88
2019-02-23T02:46:23.881Z,4.00
2019-02-23T02:47:23.805Z,4.04
2019-02-23T02:48:23.775Z,3.91
2019-02-23T02:49:23.723Z,3.93
2019-02-23T02:50:24.910Z,3.87
2019-02-23T02:51:23.640Z,3.98
2019-02-23T02:52:23.604Z,3.91
2019-02-23T02:53:23.534Z,3.91
2019-02-23T02:54:23.487Z,3.90
2019-02-23T02:55:23.447Z,3.91
2019-02-23T02:56:23.406Z,3.88
2019-02-23T02:57:23.383Z,3.86
2019-02-23T02:58:23.316Z,3.88
2019-02-23T02:59:23.273Z,3.84
2019-02-23T03:00:23.218Z,3.91
2019-02-23T03:01:23.169Z,3.88
2019-02-23T03:02:23.160Z,3.84
2019-02-23T03:03:23.086Z,3.88
2019-02-23T03:04:23.049Z,3.86
2019-02-23T03:05:22.988Z,3.87
2019-02-23T03:06:22.943Z,3.96
2019-02-23T03:07:22.898Z,4.00
2019-02-23T03:08:22.882Z,4.12
2019-02-23T03:09:22.813Z,4.18
2019-02-23T03:10:22.769Z,4.45
2019-02-23T03:11:22.723Z,4.65
2019-02-23T03:12:22.695Z,4.69
2019-02-23T03:13:22.623Z,4.84
2019-02-23T03:14:22.579Z,4.91
2019-02-23T03:15:22.538Z,5.06
2019-02-23T03:16:22.499Z,5.04
2019-02-23T03:17:22.481Z,5.13
2019-02-23T03:18:22.396Z,5.13
2019-02-23T03:19:22.355Z,5.21
2019-02-23T03:20:22.311Z,5.21
2019-02-23T03:21:22.267Z,5.27
2019-02-23T03:22:22.231Z,5.12
2019-02-23T03:23:22.203Z,5.28
2019-02-23T03:24:22.129Z,5.30
2019-02-23T03:25:22.078Z,5.27
2019-02-23T03:26:22.035Z,5.31
2019-02-23T03:27:21.989Z,5.17
2019-02-23T03:28:21.952Z,5.20
2019-02-23T03:29:21.930Z,5.07
2019-02-23T03:30:21.860Z,5.00
2019-02-23T03:31:21.817Z,5.06
2019-02-23T03:32:21.766Z,5.22
2019-02-23T03:33:21.745Z,5.33
2019-02-23T03:34:21.701Z,5.42
2019-02-23T03:35:21.634Z,5.38
2019-02-23T03:36:21.583Z,5.49
2019-02-23T03:37:21.565Z,5.51
2019-02-23T03:38:21.494Z,5.60
2019-02-23T03:39:21.474Z,5.53
2019-02-23T03:40:21.410Z,5.53
2019-02-23T03:41:21.367Z,5.64
2019-02-23T03:42:21.319Z,5.65
2019-02-23T03:43:21.280Z,5.75
2019-02-23T03:44:21.221Z,5.68
2019-02-23T03:45:21.201Z,5.67
2019-02-23T03:46:21.131Z,5.64
2019-02-23T03:47:21.090Z,5.71
2019-02-23T03:48:21.046Z,5.60
2019-02-23T03:49:21.023Z,5.63
2019-02-23T03:50:20.949Z,5.61
2019-02-23T03:51:20.927Z,5.61
2019-02-23T03:52:20.880Z,5.60
2019-02-23T03:53:20.826Z,5.60
2019-02-23T03:54:20.774Z,5.56
2019-02-23T03:55:20.757Z,5.56
2019-02-23T03:56:20.682Z,5.60
2019-02-23T03:57:20.663Z,5.54
2019-02-23T03:58:20.680Z,5.51
2019-02-23T03:59:20.550Z,5.49
2019-02-23T04:00:20.508Z,5.40
2019-02-23T04:01:20.466Z,5.39
2019-02-23T04:02:20.418Z,5.38
2019-02-23T04:03:20.402Z,5.39
2019-02-23T04:04:20.322Z,5.39
2019-02-23T04:05:20.272Z,5.38
2019-02-23T04:06:20.239Z,5.49
2019-02-23T04:07:20.197Z,5.46
2019-02-23T04:08:20.144Z,5.48
2019-02-23T04:09:20.119Z,5.45
2019-02-23T04:10:20.085Z,5.36
2019-02-23T04:11:20.029Z,5.28
2019-02-23T04:12:19.970Z,5.25
2019-02-23T04:13:19.925Z,5.18
2019-02-23T04:14:19.878Z,5.17
2019-02-23T04:15:19.835Z,5.20
2019-02-23T04:16:19.807Z,5.22
2019-02-23T04:17:19.737Z,5.22
2019-02-23T04:18:19.692Z,5.13
2019-02-23T04:19:19.645Z,5.20
2019-02-23T04:20:19.608Z,5.35
2019-02-23T04:21:19.570Z,5.45
2019-02-23T04:22:19.530Z,5.45
2019-02-23T04:23:19.467Z,5.58
2019-02-23T04:24:19.430Z,5.53
2019-02-23T04:25:19.381Z,5.42
2019-02-23T04:26:19.335Z,5.39
2019-02-23T04:27:19.316Z,5.43
2019-02-23T04:28:19.243Z,5.45
2019-02-23T04:29:19.197Z,5.39
2019-02-23T04:30:19.150Z,5.30
2019-02-23T04:31:19.106Z,5.33
2019-02-23T04:32:19.094Z,5.39
2019-02-23T04:33:19.020Z,5.42
2019-02-23T04:34:18.979Z,5.35
2019-02-23T04:35:18.933Z,5.25
2019-02-23T04:36:18.881Z,5.20
2019-02-23T04:37:18.859Z,5.18
2019-02-23T04:38:18.796Z,5.25
2019-02-23T04:39:18.751Z,5.30
2019-02-23T04:40:18.698Z,5.27
2019-02-23T04:41:18.657Z,5.36
2019-02-23T04:42:18.634Z,5.40
2019-02-23T04:43:18.563Z,5.45
2019-02-23T04:44:18.534Z,5.46
2019-02-23T04:45:18.479Z,5.45
2019-02-23T04:46:18.434Z,5.45
2019-02-23T04:47:18.399Z,5.38
2019-02-23T04:48:18.379Z,5.31
2019-02-23T04:49:18.294Z,5.35
2019-02-23T04:50:18.251Z,5.40
2019-02-23T04:51:18.211Z,5.46
2019-02-23T04:52:18.162Z,5.51
2019-02-23T04:53:18.139Z,5.43
2019-02-23T04:54:18.067Z,5.45
2019-02-23T04:55:18.029Z,5.43
2019-02-23T04:56:17.990Z,5.45
2019-02-23T04:57:17.942Z,5.38
2019-02-23T04:58:17.923Z,5.46
2019-02-23T04:59:17.851Z,5.40
2019-02-23T05:00:17.797Z,5.43
2019-02-23T05:01:17.750Z,5.33
2019-02-23T05:02:17.706Z,5.38
2019-02-23T05:03:17.659Z,5.42
2019-02-23T05:04:17.643Z,5.48
2019-02-23T05:05:17.604Z,5.46
2019-02-23T05:06:17.534Z,5.61
2019-02-23T05:07:17.489Z,5.54
2019-02-23T05:08:17.440Z,5.54
2019-02-23T05:09:17.391Z,5.49
2019-02-23T05:10:17.354Z,5.61
2019-02-23T05:11:17.329Z,5.56
2019-02-23T05:12:17.253Z,5.48
2019-02-23T05:13:17.218Z,5.54
2019-02-23T05:14:17.189Z,5.48
2019-02-23T05:15:17.117Z,5.33
2019-02-23T05:16:17.079Z,5.31
2019-02-23T05:17:17.034Z,5.30
2019-02-23T05:18:16.985Z,5.30
2019-02-23T05:19:16.965Z,5.18
2019-02-23T05:20:16.893Z,5.20
2019-02-23T05:21:25.944Z,5.22
2019-02-23T05:22:16.803Z,5.27
2019-02-23T05:23:16.757Z,5.21
2019-02-23T05:24:16.741Z,5.20
2019-02-23T05:25:16.670Z,5.20
2019-02-23T05:26:16.622Z,5.18
2019-02-23T05:27:16.577Z,5.17
2019-02-23T05:28:16.534Z,5.21
2019-02-23T05:29:16.512Z,5.31
2019-02-23T05:30:16.445Z,5.20
2019-02-23T05:31:16.397Z,5.17
2019-02-23T05:32:16.348Z,5.20
2019-02-23T05:33:16.303Z,5.18
2019-02-23T05:34:16.278Z,5.17
2019-02-23T05:35:16.222Z,5.15
2019-02-23T05:36:16.172Z,5.15
2019-02-23T05:37:16.130Z,5.15
2019-02-23T05:38:16.085Z,5.15
2019-02-23T05:39:17.854Z,5.13
2019-02-23T05:40:15.992Z,5.18
2019-02-23T05:41:15.941Z,5.13
2019-02-23T05:42:15.903Z,5.21
2019-02-23T05:43:15.862Z,5.13
2019-02-23T05:44:15.830Z,5.13
2019-02-23T05:45:15.758Z,5.17
2019-02-23T05:46:15.716Z,5.17
2019-02-23T05:47:15.667Z,5.18
2019-02-23T05:48:15.667Z,5.21
2019-02-23T05:49:15.583Z,5.27
2019-02-23T05:50:15.536Z,5.28
2019-02-23T05:51:15.494Z,5.24
2019-02-23T05:52:15.444Z,5.27
2019-02-23T05:53:15.397Z,5.24
2019-02-23T05:54:15.373Z,5.20
2019-02-23T05:55:15.304Z,5.18
2019-02-23T05:56:16.323Z,5.15
2019-02-23T05:57:15.229Z,5.17
2019-02-23T05:58:15.166Z,5.15
2019-02-23T05:59:15.146Z,5.06
2019-02-23T06:00:15.083Z,5.04
2019-02-23T06:01:15.041Z,5.04
2019-02-23T06:02:15.013Z,5.12
2019-02-23T06:03:14.969Z,5.04
2019-02-23T06:04:14.899Z,5.03
2019-02-23T06:05:14.862Z,5.13
2019-02-23T06:06:14.805Z,5.10
2019-02-23T06:07:14.789Z,5.07
2019-02-23T06:08:14.721Z,4.97
2019-02-23T06:09:14.677Z,5.04
2019-02-23T06:10:14.633Z,5.04
2019-02-23T06:11:14.584Z,5.03
2019-02-23T06:12:14.533Z,5.00
2019-02-23T06:13:14.507Z,4.86
2019-02-23T06:14:14.448Z,4.88
2019-02-23T06:15:14.404Z,4.88
2019-02-23T06:16:14.351Z,4.89
2019-02-23T06:17:14.312Z,4.92
2019-02-23T06:18:14.287Z,4.97
2019-02-23T06:19:14.216Z,4.94
2019-02-23T06:20:14.178Z,4.94
2019-02-23T06:21:14.131Z,4.89
2019-02-23T06:22:14.085Z,4.78
2019-02-23T06:23:14.042Z,4.94
2019-02-23T06:24:14.008Z,4.89
2019-02-23T06:25:13.942Z,4.91
2019-02-23T06:26:13.897Z,4.86
2019-02-23T06:27:13.851Z,4.92
2019-02-23T06:28:13.834Z,4.89
2019-02-23T06:29:13.767Z,4.92
2019-02-23T06:30:13.738Z,5.00
2019-02-23T06:31:13.678Z,5.04
2019-02-23T06:32:13.638Z,4.97
2019-02-23T06:33:13.580Z,4.97
2019-02-23T06:34:16.532Z,4.96
2019-02-23T06:35:13.492Z,4.97
2019-02-23T06:36:13.441Z,5.02
2019-02-23T06:37:13.392Z,5.04
2019-02-23T06:38:13.347Z,5.03
2019-02-23T06:39:13.329Z,5.04
2019-02-23T06:40:13.264Z,5.02
2019-02-23T06:41:13.219Z,5.04
2019-02-23T06:42:13.173Z,5.04
2019-02-23T06:43:13.133Z,4.99
2019-02-23T06:44:13.106Z,4.97
2019-02-23T06:45:13.035Z,5.12
2019-02-23T06:46:12.991Z,5.07
2019-02-23T06:47:12.945Z,5.06
2019-02-23T06:48:12.894Z,5.07
2019-02-23T06:49:12.849Z,5.09
2019-02-23T06:50:12.827Z,5.15
2019-02-23T06:51:12.763Z,5.10
2019-02-23T06:52:12.748Z,5.07
2019-02-23T06:53:12.671Z,5.17
2019-02-23T06:54:12.692Z,5.09
2019-02-23T06:55:12.581Z,5.17
2019-02-23T06:56:12.528Z,5.17
2019-02-23T06:57:12.482Z,5.13
2019-02-23T06:58:12.460Z,5.15
2019-02-23T06:59:12.393Z,5.21
2019-02-23T07:00:12.381Z,5.21
2019-02-23T07:01:12.308Z,5.13
2019-02-23T07:02:12.252Z,5.15
2019-02-23T07:03:12.212Z,5.36
2019-02-23T07:04:12.211Z,5.49
2019-02-23T07:05:12.139Z,5.49
2019-02-23T07:06:12.118Z,5.65
2019-02-23T07:07:12.036Z,5.81
2019-02-23T07:08:11.986Z,5.94
2019-02-23T07:09:11.939Z,6.12
2019-02-23T07:10:11.933Z,6.08
2019-02-23T07:11:11.869Z,6.25
2019-02-23T07:12:11.830Z,6.64
2019-02-23T07:13:11.788Z,6.80
2019-02-23T07:14:11.718Z,7.03
2019-02-23T07:15:11.685Z,7.23
2019-02-23T07:16:11.657Z,7.27
2019-02-23T07:17:11.575Z,7.13
2019-02-23T07:18:11.538Z,6.74
2019-02-23T07:19:11.493Z,6.84
2019-02-23T07:20:11.446Z,6.95
2019-02-23T07:21:11.398Z,6.91
2019-02-23T07:22:15.593Z,7.31
2019-02-23T07:23:11.314Z,7.07
2019-02-23T07:24:11.299Z,7.37
2019-02-23T07:25:11.227Z,7.45
2019-02-23T07:26:11.180Z,7.60
2019-02-23T07:27:11.160Z,7.82
2019-02-23T07:28:11.086Z,8.02
2019-02-23T07:29:11.044Z,8.08
2019-02-23T07:30:11.006Z,8.12
2019-02-23T07:31:10.958Z,7.90
2019-02-23T07:32:10.947Z,7.52
2019-02-23T07:33:10.877Z,7.52
2019-02-23T07:34:10.913Z,7.77
2019-02-23T07:35:10.894Z,7.80
2019-02-23T07:36:10.746Z,7.95
2019-02-23T07:37:10.706Z,8.05
2019-02-23T07:38:10.681Z,7.71
2019-02-23T07:39:10.612Z,7.90
2019-02-23T07:40:10.564Z,8.22
2019-02-23T07:41:10.521Z,8.37
2019-02-23T07:42:10.478Z,8.28
2019-02-23T07:43:10.458Z,8.37
2019-02-23T07:44:10.397Z,8.44
2019-02-23T07:45:10.354Z,8.34
2019-02-23T07:46:10.317Z,8.36
2019-02-23T07:47:10.273Z,8.59
2019-02-23T07:48:10.249Z,8.61
2019-02-23T07:49:10.176Z,8.66
2019-02-23T07:50:10.143Z,8.84
2019-02-23T07:51:10.329Z,8.98
2019-02-23T07:52:10.048Z,8.76
2019-02-23T07:53:10.006Z,8.61
2019-02-23T07:54:09.961Z,8.59
2019-02-23T07:55:09.922Z,8.59
2019-02-23T07:56:09.912Z,8.61
2019-02-23T07:57:09.841Z,8.47
2019-02-23T07:58:09.799Z,8.15
2019-02-23T07:59:09.779Z,7.92
2019-02-23T08:00:09.732Z,7.92
2019-02-23T08:01:09.662Z,8.05
2019-02-23T08:02:09.621Z,8.26
2019-02-23T08:03:09.584Z,8.45
2019-02-23T08:04:09.544Z,8.63
2019-02-23T08:05:09.503Z,9.05
2019-02-23T08:06:09.473Z,8.83
2019-02-23T08:07:09.408Z,8.86
2019-02-23T08:08:09.373Z,8.91
2019-02-23T08:09:09.332Z,8.70
2019-02-23T08:10:09.311Z,8.05
2019-02-23T08:11:09.248Z,7.95
2019-02-23T08:12:09.196Z,8.18
2019-02-23T08:13:09.158Z,8.30
2019-02-23T08:14:09.115Z,8.65
2019-02-23T08:15:09.094Z,8.41
2019-02-23T08:16:09.035Z,8.58
2019-02-23T08:17:08.990Z,8.61
2019-02-23T08:18:08.953Z,8.65
2019-02-23T08:19:08.908Z,8.48
2019-02-23T08:20:08.882Z,8.58
2019-02-23T08:21:08.820Z,8.63
2019-02-23T08:22:08.808Z,8.80
2019-02-23T08:23:08.744Z,8.96
2019-02-23T08:24:08.688Z,9.01
2019-02-23T08:25:08.655Z,9.31
2019-02-23T08:26:08.607Z,9.50
2019-02-23T08:27:08.566Z,9.57
2019-02-23T08:28:08.555Z,9.02
2019-02-23T08:29:08.486Z,9.20
2019-02-23T08:30:08.437Z,9.28
2019-02-23T08:31:08.498Z,9.21
2019-02-23T08:32:08.366Z,9.57
2019-02-23T08:33:08.323Z,9.79
2019-02-23T08:34:08.328Z,9.46
2019-02-23T08:35:08.238Z,9.36
2019-02-23T08:36:08.215Z,9.57
2019-02-23T08:37:08.154Z,9.23
2019-02-23T08:38:08.112Z,9.21
2019-02-23T08:39:08.078Z,9.76
2019-02-23T08:40:08.030Z,10.12
2019-02-23T08:41:08.011Z,10.61
2019-02-23T08:42:08.020Z,10.71
2019-02-23T08:43:07.902Z,10.78
2019-02-23T08:44:07.871Z,10.64
2019-02-23T08:45:08.148Z,10.84
2019-02-23T08:46:07.788Z,11.00
2019-02-23T08:47:07.805Z,11.14
2019-02-23T08:48:07.698Z,10.76
2019-02-23T08:49:07.668Z,10.63
2019-02-23T08:50:07.619Z,10.18
2019-02-23T08:51:07.575Z,9.83
2019-02-23T08:52:07.567Z,10.09
2019-02-23T08:53:07.501Z,10.22
2019-02-23T08:54:07.456Z,10.45
2019-02-23T08:55:07.413Z,10.94
2019-02-23T08:56:07.378Z,11.33
2019-02-23T08:57:07.360Z,11.57
2019-02-23T08:58:07.305Z,11.85
2019-02-23T08:59:07.260Z,11.64
2019-02-23T09:00:07.301Z,11.07
2019-02-23T09:01:07.171Z,10.70
2019-02-23T09:02:07.140Z,10.42
2019-02-23T09:03:07.095Z,10.68
2019-02-23T09:04:07.084Z,10.52
2019-02-23T09:05:07.022Z,11.02
2019-02-23T09:06:06.980Z,11.46
2019-02-23T09:07:06.942Z,11.94
2019-02-23T09:08:06.896Z,12.12
2019-02-23T09:09:08.170Z,12.28
2019-02-23T09:10:06.824Z,11.78
2019-02-23T09:11:06.782Z,11.21
2019-02-23T09:12:06.741Z,10.84
2019-02-23T09:13:06.698Z,10.52
2019-02-23T09:14:06.660Z,10.60
2019-02-23T09:15:06.645Z,10.27
2019-02-23T09:16:06.591Z,10.02
2019-02-23T09:17:06.655Z,10.14
2019-02-23T09:18:06.512Z,10.29
2019-02-23T09:19:06.496Z,10.68
2019-02-23T09:20:06.437Z,11.14
2019-02-23T09:21:06.390Z,11.51
2019-02-23T09:22:06.348Z,11.96
2019-02-23T09:23:06.316Z,12.28
2019-02-23T09:24:06.302Z,12.10
2019-02-23T09:25:06.241Z,11.78
2019-02-23T09:26:06.194Z,11.88
2019-02-23T09:27:06.159Z,11.18
2019-02-23T09:28:06.126Z,11.06
2019-02-23T09:29:06.111Z,11.39
2019-02-23T09:30:06.051Z,11.79
2019-02-23T09:31:06.013Z,12.01
2019-02-23T09:32:05.966Z,12.04
2019-02-23T09:33:05.935Z,12.42
2019-02-23T09:34:05.916Z,12.70
2019-02-23T09:35:05.849Z,12.04
2019-02-23T09:36:05.818Z,12.19
2019-02-23T09:37:05.782Z,12.67
2019-02-23T09:38:05.767Z,12.78
2019-02-23T09:39:05.723Z,13.04
2019-02-23T09:40:05.681Z,13.29
2019-02-23T09:41:05.625Z,13.15
2019-02-23T09:42:07.714Z,13.14
2019-02-23T09:43:05.578Z,12.75
2019-02-23T09:44:05.511Z,11.61
2019-02-23T09:45:05.469Z,10.88
2019-02-23T09:46:05.434Z,10.47
2019-02-23T09:47:05.404Z,10.71
2019-02-23T09:48:05.384Z,10.96
2019-02-23T09:49:05.326Z,10.84
2019-02-23T09:50:05.286Z,10.67
2019-02-23T09:51:05.274Z,10.47
2019-02-23T09:52:05.221Z,11.07
2019-02-23T09:53:11.129Z,11.28
2019-02-23T09:54:05.129Z,11.40
2019-02-23T09:55:05.094Z,10.66
2019-02-23T09:56:05.097Z,10.71
2019-02-23T09:57:05.052Z,11.18
2019-02-23T09:58:05.040Z,11.47
2019-02-23T09:59:04.942Z,12.02
2019-02-23T10:00:04.915Z,12.65
2019-02-23T10:01:04.876Z,13.07
2019-02-23T10:02:04.836Z,13.39
2019-02-23T10:03:04.797Z,13.66
2019-02-23T10:04:04.783Z,13.15
2019-02-23T10:05:04.716Z,12.82
2019-02-23T10:06:04.675Z,12.67
2019-02-23T10:07:04.665Z,12.85
2019-02-23T10:08:04.612Z,12.89
2019-02-23T10:09:04.593Z,12.97
2019-02-23T10:10:04.535Z,12.87
2019-02-23T10:11:04.500Z,13.07
2019-02-23T10:12:04.481Z,12.42
2019-02-23T10:13:04.418Z,11.94
2019-02-23T10:14:04.417Z,12.35
2019-02-23T10:15:04.361Z,12.77
2019-02-23T10:16:04.308Z,12.70
2019-02-23T10:17:04.271Z,12.49
2019-02-23T10:18:04.233Z,12.65
2019-02-23T10:19:04.198Z,12.90
2019-02-23T10:20:04.192Z,13.04
2019-02-23T10:21:04.129Z,13.00
2019-02-23T10:22:04.123Z,13.00
2019-02-23T10:23:04.056Z,13.04
2019-02-23T10:24:04.012Z,13.36
2019-02-23T10:25:04.004Z,13.60
2019-02-23T10:26:03.939Z,13.67
2019-02-23T10:27:03.900Z,13.75
2019-02-23T10:28:03.873Z,13.79
2019-02-23T10:29:03.841Z,14.06
2019-02-23T10:30:03.791Z,13.57
2019-02-23T10:31:03.851Z,13.39
2019-02-23T10:32:03.727Z,13.79
2019-02-23T10:33:03.716Z,14.21
2019-02-23T10:34:03.652Z,13.59
2019-02-23T10:35:03.615Z,12.21
2019-02-23T10:36:03.573Z,12.28
2019-02-23T10:37:03.557Z,12.16
2019-02-23T10:38:03.497Z,12.02
2019-02-23T10:39:03.462Z,11.55
2019-02-23T10:40:03.447Z,11.75
2019-02-23T10:41:03.425Z,12.31
2019-02-23T10:42:03.367Z,12.97
2019-02-23T10:43:03.325Z,13.41
2019-02-23T10:44:03.301Z,13.05
2019-02-23T10:45:03.243Z,12.83
2019-02-23T10:46:03.212Z,13.08
2019-02-23T10:47:03.201Z,13.54
2019-02-23T10:48:03.161Z,14.03
2019-02-23T10:49:03.097Z,13.45
2019-02-23T10:50:03.060Z,13.17
2019-02-23T10:51:03.026Z,13.66
2019-02-23T10:52:02.994Z,13.59
2019-02-23T10:53:02.964Z,13.46
2019-02-23T10:54:02.945Z,13.55
2019-02-23T10:55:02.888Z,13.59
2019-02-23T10:56:02.841Z,13.26
2019-02-23T10:57:02.809Z,13.44
2019-02-23T10:58:02.772Z,13.26
2019-02-23T10:59:02.762Z,13.55
2019-02-23T11:00:02.705Z,13.69
2019-02-23T11:01:02.664Z,14.07
2019-02-23T11:02:02.620Z,13.81
2019-02-23T11:03:02.585Z,13.82
2019-02-23T11:04:02.558Z,13.97
2019-02-23T11:05:02.539Z,13.51
2019-02-23T11:06:02.485Z,13.30
2019-02-23T11:07:02.448Z,13.10
2019-02-23T11:08:02.406Z,13.05
2019-02-23T11:09:02.363Z,13.04
2019-02-23T11:10:02.363Z,12.87
2019-02-23T11:11:02.318Z,12.77
2019-02-23T11:12:02.263Z,12.17
2019-02-23T11:13:02.224Z,12.54
2019-02-23T11:14:02.196Z,12.87
2019-02-23T11:15:02.158Z,13.15
2019-02-23T11:16:02.104Z,13.32
2019-02-23T11:17:02.105Z,13.25
2019-02-23T11:18:02.962Z,13.36
2019-02-23T11:19:02.004Z,13.30
2019-02-23T11:20:01.960Z,13.55
2019-02-23T11:21:01.954Z,13.48
2019-02-23T11:22:01.911Z,12.54
2019-02-23T11:23:01.849Z,12.39
2019-02-23T11:24:01.820Z,12.67
2019-02-23T11:25:01.792Z,12.87
2019-02-23T11:26:01.765Z,13.07
2019-02-23T11:27:01.709Z,13.08
2019-02-23T11:28:01.665Z,13.33
2019-02-23T11:29:01.628Z,13.59
2019-02-23T11:30:01.594Z,13.91
2019-02-23T11:31:01.586Z,13.96
2019-02-23T11:32:01.525Z,13.75
2019-02-23T11:33:01.489Z,13.26
2019-02-23T11:34:01.451Z,13.71
2019-02-23T11:35:01.406Z,13.92
2019-02-23T11:36:01.376Z,14.12
2019-02-23T11:37:01.366Z,14.12
2019-02-23T11:38:01.303Z,14.00
2019-02-23T11:39:01.270Z,13.89
2019-02-23T11:40:01.245Z,14.12
2019-02-23T11:41:01.185Z,14.06
2019-02-23T11:42:01.174Z,14.24
2019-02-23T11:43:01.118Z,14.07
2019-02-23T11:44:01.084Z,14.02
2019-02-23T11:45:01.079Z,13.71
2019-02-23T11:46:01.022Z,14.03
2019-02-23T11:47:00.973Z,14.35
2019-02-23T11:48:00.955Z,14.45
2019-02-23T11:49:00.897Z,14.28
2019-02-23T11:50:00.865Z,14.33
2019-02-23T11:51:00.831Z,14.03
2019-02-23T11:52:00.785Z,13.73
2019-02-23T11:53:00.775Z,13.85
2019-02-23T11:54:00.715Z,14.04
2019-02-23T11:55:00.702Z,14.20
2019-02-23T11:56:00.649Z,14.09
2019-02-23T11:57:00.619Z,14.18
2019-02-23T11:58:00.579Z,14.03
2019-02-23T11:59:00.544Z,13.96
2019-02-23T12:00:00.627Z,13.84
2019-02-23T12:01:00.460Z,13.67
2019-02-23T12:02:00.424Z,13.73
2019-02-23T12:03:00.419Z,13.78
2019-02-23T12:04:00.362Z,13.70
2019-02-23T12:05:00.365Z,13.81
2019-02-23T12:06:00.288Z,13.45
2019-02-23T12:07:00.245Z,13.20
2019-02-23T12:08:00.218Z,13.17
2019-02-23T12:09:00.182Z,13.28
2019-02-23T12:10:00.334Z,13.07
2019-02-23T12:11:00.110Z,13.22
2019-02-23T12:12:00.069Z,13.08
2019-02-23T12:13:00.050Z,13.05
2019-02-23T12:13:59.990Z,13.12
2019-02-23T12:15:00.715Z,13.15
2019-02-23T12:15:59.923Z,13.29
2019-02-23T12:16:59.889Z,13.19
2019-02-23T12:17:59.857Z,13.17
2019-02-23T12:18:59.843Z,13.30
2019-02-23T12:19:59.796Z,13.19
2019-02-23T12:20:59.736Z,13.30
2019-02-23T12:21:59.707Z,13.29
2019-02-23T12:22:59.670Z,13.30
2019-02-23T12:24:06.010Z,13.54
2019-02-23T12:24:59.587Z,13.49
2019-02-23T12:25:59.554Z,13.39
2019-02-23T12:26:59.514Z,13.46
2019-02-23T12:27:59.484Z,13.19
2019-02-23T12:28:59.447Z,13.03
2019-02-23T12:29:59.433Z,12.92
2019-02-23T12:30:59.375Z,13.12
2019-02-23T12:31:59.338Z,13.11
2019-02-23T12:32:59.294Z,13.08
2019-02-23T12:33:59.254Z,13.14
2019-02-23T12:34:59.246Z,13.04
2019-02-23T12:35:59.190Z,13.04
2019-02-23T12:36:59.159Z,13.05
2019-02-23T12:37:59.107Z,13.07
2019-02-23T12:38:59.098Z,13.05
2019-02-23T12:39:59.041Z,13.03
2019-02-23T12:40:59.028Z,12.89
2019-02-23T12:41:58.967Z,12.89
2019-02-23T12:42:58.932Z,12.89
2019-02-23T12:43:58.907Z,12.83
2019-02-23T12:44:58.845Z,12.87
2019-02-23T12:45:58.815Z,12.71
2019-02-23T12:46:58.770Z,12.85
2019-02-23T12:47:58.739Z,13.00
2019-02-23T12:48:58.728Z,12.89
2019-02-23T12:49:58.668Z,13.04
2019-02-23T12:50:58.647Z,13.04
2019-02-23T12:51:58.595Z,13.07
2019-02-23T12:52:59.854Z,13.04
2019-02-23T12:53:58.544Z,13.08
2019-02-23T12:54:58.488Z,13.08
2019-02-23T12:55:58.429Z,12.95
2019-02-23T12:56:58.396Z,12.87
2019-02-23T12:57:58.361Z,13.05
2019-02-23T12:58:58.346Z,13.00
2019-02-23T12:59:58.284Z,12.96
2019-02-23T13:00:58.256Z,13.04
2019-02-23T13:01:58.222Z,13.00
2019-02-23T13:02:58.180Z,13.04
2019-02-23T13:03:58.162Z,13.03
2019-02-23T13:04:58.107Z,13.14
2019-02-23T13:05:58.071Z,13.20
2019-02-23T13:06:58.045Z,13.25
2019-02-23T13:07:58.000Z,13.11
2019-02-23T13:08:57.951Z,13.07